sensor_id;sensor_type;location;lat;lon;timestamp;P1;durP1;ratioP1;P2;durP2;ratioP2
76593;SDS011;65482;50.240;14.302;2024-02-26T00:01:40;90.55;;;30.52;;
76593;SDS011;65482;50.240;14.302;2024-02-26T00:04:05;84.20;;;30.15;;
76593;SDS011;65482;50.240;14.302;2024-02-26T00:06:31;83.68;;;29.38;;
76593;SDS011;65482;50.240;14.302;2024-02-26T00:08:57;77.53;;;29.25;;
76593;SDS011;65482;50.240;14.302;2024-02-26T00:11:23;80.38;;;30.10;;
76593;SDS011;65482;50.240;14.302;2024-02-26T00:13:49;80.32;;;28.92;;
76593;SDS011;65482;50.240;14.302;2024-02-26T00:16:14;81.97;;;29.83;;
76593;SDS011;65482;50.240;14.302;2024-02-26T00:18:40;89.28;;;30.98;;
76593;SDS011;65482;50.240;14.302;2024-02-26T00:21:06;75.80;;;30.05;;
76593;SDS011;65482;50.240;14.302;2024-02-26T00:23:31;92.53;;;30.70;;
76593;SDS011;65482;50.240;14.302;2024-02-26T00:25:57;81.97;;;29.98;;
76593;SDS011;65482;50.240;14.302;2024-02-26T00:28:23;82.90;;;30.13;;
76593;SDS011;65482;50.240;14.302;2024-02-26T00:30:50;81.20;;;30.10;;
76593;SDS011;65482;50.240;14.302;2024-02-26T00:33:20;93.78;;;30.08;;
76593;SDS011;65482;50.240;14.302;2024-02-26T00:35:47;83.43;;;29.38;;
76593;SDS011;65482;50.240;14.302;2024-02-26T00:38:12;83.00;;;30.30;;
76593;SDS011;65482;50.240;14.302;2024-02-26T00:40:38;76.40;;;30.27;;
76593;SDS011;65482;50.240;14.302;2024-02-26T00:43:04;79.50;;;29.58;;
76593;SDS011;65482;50.240;14.302;2024-02-26T00:45:30;94.30;;;30.17;;
76593;SDS011;65482;50.240;14.302;2024-02-26T00:47:57;81.47;;;30.15;;
76593;SDS011;65482;50.240;14.302;2024-02-26T00:50:23;82.43;;;31.17;;
76593;SDS011;65482;50.240;14.302;2024-02-26T00:52:48;81.07;;;30.52;;
76593;SDS011;65482;50.240;14.302;2024-02-26T00:55:14;80.03;;;30.25;;
76593;SDS011;65482;50.240;14.302;2024-02-26T00:57:39;89.65;;;30.85;;
76593;SDS011;65482;50.240;14.302;2024-02-26T01:00:06;82.18;;;29.73;;
76593;SDS011;65482;50.240;14.302;2024-02-26T01:02:34;81.88;;;30.90;;
76593;SDS011;65482;50.240;14.302;2024-02-26T01:05:00;79.95;;;31.23;;
76593;SDS011;65482;50.240;14.302;2024-02-26T01:07:25;82.68;;;29.75;;
76593;SDS011;65482;50.240;14.302;2024-02-26T01:09:51;83.40;;;31.60;;
76593;SDS011;65482;50.240;14.302;2024-02-26T01:12:16;94.75;;;30.60;;
76593;SDS011;65482;50.240;14.302;2024-02-26T01:14:42;80.72;;;29.52;;
76593;SDS011;65482;50.240;14.302;2024-02-26T01:17:08;85.82;;;29.52;;
76593;SDS011;65482;50.240;14.302;2024-02-26T01:19:33;84.55;;;29.92;;
76593;SDS011;65482;50.240;14.302;2024-02-26T01:21:59;90.35;;;31.00;;
76593;SDS011;65482;50.240;14.302;2024-02-26T01:24:24;94.70;;;32.28;;
76593;SDS011;65482;50.240;14.302;2024-02-26T01:26:50;79.78;;;30.35;;
76593;SDS011;65482;50.240;14.302;2024-02-26T01:29:15;78.03;;;28.23;;
76593;SDS011;65482;50.240;14.302;2024-02-26T01:31:41;80.55;;;29.10;;
76593;SDS011;65482;50.240;14.302;2024-02-26T01:34:06;75.00;;;28.83;;
76593;SDS011;65482;50.240;14.302;2024-02-26T01:36:32;79.20;;;28.98;;
76593;SDS011;65482;50.240;14.302;2024-02-26T01:38:57;78.90;;;28.83;;
76593;SDS011;65482;50.240;14.302;2024-02-26T01:41:23;76.47;;;29.70;;
76593;SDS011;65482;50.240;14.302;2024-02-26T01:43:48;79.38;;;29.80;;
76593;SDS011;65482;50.240;14.302;2024-02-26T01:46:14;71.43;;;27.08;;
76593;SDS011;65482;50.240;14.302;2024-02-26T01:48:41;68.63;;;28.17;;
76593;SDS011;65482;50.240;14.302;2024-02-26T01:51:08;67.07;;;26.20;;
76593;SDS011;65482;50.240;14.302;2024-02-26T01:53:35;67.20;;;27.75;;
76593;SDS011;65482;50.240;14.302;2024-02-26T01:56:00;64.53;;;26.50;;
76593;SDS011;65482;50.240;14.302;2024-02-26T01:58:27;68.32;;;28.10;;
76593;SDS011;65482;50.240;14.302;2024-02-26T02:00:53;73.22;;;28.33;;
76593;SDS011;65482;50.240;14.302;2024-02-26T02:03:18;66.57;;;26.90;;
76593;SDS011;65482;50.240;14.302;2024-02-26T02:05:44;67.20;;;26.85;;
76593;SDS011;65482;50.240;14.302;2024-02-26T02:08:10;68.45;;;27.50;;
76593;SDS011;65482;50.240;14.302;2024-02-26T02:10:36;70.60;;;27.67;;
76593;SDS011;65482;50.240;14.302;2024-02-26T02:13:03;68.40;;;26.48;;
76593;SDS011;65482;50.240;14.302;2024-02-26T02:15:29;67.60;;;26.17;;
76593;SDS011;65482;50.240;14.302;2024-02-26T02:17:55;82.35;;;28.15;;
76593;SDS011;65482;50.240;14.302;2024-02-26T02:20:24;74.88;;;25.75;;
76593;SDS011;65482;50.240;14.302;2024-02-26T02:22:52;70.15;;;25.70;;
76593;SDS011;65482;50.240;14.302;2024-02-26T02:25:18;61.35;;;24.13;;
76593;SDS011;65482;50.240;14.302;2024-02-26T02:27:43;67.13;;;23.90;;
76593;SDS011;65482;50.240;14.302;2024-02-26T02:30:09;63.90;;;24.10;;
76593;SDS011;65482;50.240;14.302;2024-02-26T02:32:39;57.22;;;24.38;;
76593;SDS011;65482;50.240;14.302;2024-02-26T02:35:06;54.67;;;23.83;;
76593;SDS011;65482;50.240;14.302;2024-02-26T02:37:32;52.47;;;23.50;;
76593;SDS011;65482;50.240;14.302;2024-02-26T02:39:58;65.30;;;23.90;;
76593;SDS011;65482;50.240;14.302;2024-02-26T02:42:24;66.10;;;23.80;;
76593;SDS011;65482;50.240;14.302;2024-02-26T02:44:49;51.50;;;23.10;;
76593;SDS011;65482;50.240;14.302;2024-02-26T02:47:15;56.30;;;24.65;;
76593;SDS011;65482;50.240;14.302;2024-02-26T02:49:41;57.25;;;23.73;;
76593;SDS011;65482;50.240;14.302;2024-02-26T02:52:06;57.13;;;23.95;;
76593;SDS011;65482;50.240;14.302;2024-02-26T02:54:32;54.53;;;23.67;;
76593;SDS011;65482;50.240;14.302;2024-02-26T02:56:58;52.67;;;23.75;;
76593;SDS011;65482;50.240;14.302;2024-02-26T02:59:24;60.40;;;23.42;;
76593;SDS011;65482;50.240;14.302;2024-02-26T03:01:49;50.80;;;22.58;;
76593;SDS011;65482;50.240;14.302;2024-02-26T03:04:15;53.95;;;22.77;;
76593;SDS011;65482;50.240;14.302;2024-02-26T03:06:40;54.22;;;23.95;;
76593;SDS011;65482;50.240;14.302;2024-02-26T03:09:06;52.72;;;24.05;;
76593;SDS011;65482;50.240;14.302;2024-02-26T03:11:32;47.58;;;23.17;;
76593;SDS011;65482;50.240;14.302;2024-02-26T03:13:57;56.35;;;23.20;;
76593;SDS011;65482;50.240;14.302;2024-02-26T03:16:23;52.88;;;23.58;;
76593;SDS011;65482;50.240;14.302;2024-02-26T03:18:48;68.35;;;24.40;;
76593;SDS011;65482;50.240;14.302;2024-02-26T03:21:14;49.38;;;22.70;;
76593;SDS011;65482;50.240;14.302;2024-02-26T03:23:39;52.15;;;23.77;;
76593;SDS011;65482;50.240;14.302;2024-02-26T03:26:05;47.30;;;22.50;;
76593;SDS011;65482;50.240;14.302;2024-02-26T03:28:31;55.55;;;22.40;;
76593;SDS011;65482;50.240;14.302;2024-02-26T03:30:59;45.38;;;20.75;;
76593;SDS011;65482;50.240;14.302;2024-02-26T03:33:25;48.58;;;22.13;;
76593;SDS011;65482;50.240;14.302;2024-02-26T03:35:50;44.92;;;20.52;;
76593;SDS011;65482;50.240;14.302;2024-02-26T03:38:16;41.80;;;20.40;;
76593;SDS011;65482;50.240;14.302;2024-02-26T03:40:41;43.58;;;19.90;;
76593;SDS011;65482;50.240;14.302;2024-02-26T03:43:07;53.40;;;23.48;;
76593;SDS011;65482;50.240;14.302;2024-02-26T03:45:33;52.85;;;23.23;;
76593;SDS011;65482;50.240;14.302;2024-02-26T03:47:59;51.55;;;21.60;;
76593;SDS011;65482;50.240;14.302;2024-02-26T03:50:25;49.33;;;22.25;;
76593;SDS011;65482;50.240;14.302;2024-02-26T03:52:50;56.00;;;22.45;;
76593;SDS011;65482;50.240;14.302;2024-02-26T03:55:16;58.03;;;24.60;;
76593;SDS011;65482;50.240;14.302;2024-02-26T03:57:46;49.28;;;22.63;;
76593;SDS011;65482;50.240;14.302;2024-02-26T04:00:12;42.33;;;21.27;;
76593;SDS011;65482;50.240;14.302;2024-02-26T04:02:38;39.75;;;20.60;;
76593;SDS011;65482;50.240;14.302;2024-02-26T04:05:04;36.90;;;19.50;;
76593;SDS011;65482;50.240;14.302;2024-02-26T04:07:30;36.33;;;18.88;;
76593;SDS011;65482;50.240;14.302;2024-02-26T04:09:55;37.55;;;19.17;;
76593;SDS011;65482;50.240;14.302;2024-02-26T04:12:21;35.42;;;18.27;;
76593;SDS011;65482;50.240;14.302;2024-02-26T04:14:47;37.83;;;19.55;;
76593;SDS011;65482;50.240;14.302;2024-02-26T04:17:12;38.53;;;19.88;;
76593;SDS011;65482;50.240;14.302;2024-02-26T04:19:38;38.25;;;18.75;;
76593;SDS011;65482;50.240;14.302;2024-02-26T04:22:03;38.22;;;18.85;;
76593;SDS011;65482;50.240;14.302;2024-02-26T04:24:29;36.58;;;18.63;;
76593;SDS011;65482;50.240;14.302;2024-02-26T04:26:54;38.17;;;19.65;;
76593;SDS011;65482;50.240;14.302;2024-02-26T04:29:20;37.70;;;19.13;;
76593;SDS011;65482;50.240;14.302;2024-02-26T04:31:45;40.35;;;19.60;;
76593;SDS011;65482;50.240;14.302;2024-02-26T04:34:12;38.25;;;19.52;;
76593;SDS011;65482;50.240;14.302;2024-02-26T04:36:37;36.10;;;19.45;;
76593;SDS011;65482;50.240;14.302;2024-02-26T04:39:03;42.60;;;19.05;;
76593;SDS011;65482;50.240;14.302;2024-02-26T04:41:28;38.45;;;19.40;;
76593;SDS011;65482;50.240;14.302;2024-02-26T04:43:54;42.45;;;20.90;;
76593;SDS011;65482;50.240;14.302;2024-02-26T04:46:19;41.40;;;19.85;;
76593;SDS011;65482;50.240;14.302;2024-02-26T04:48:47;40.92;;;18.95;;
76593;SDS011;65482;50.240;14.302;2024-02-26T04:51:12;42.72;;;20.33;;
76593;SDS011;65482;50.240;14.302;2024-02-26T04:53:38;41.85;;;19.75;;
76593;SDS011;65482;50.240;14.302;2024-02-26T04:56:04;42.78;;;20.35;;
76593;SDS011;65482;50.240;14.302;2024-02-26T04:58:30;40.42;;;19.23;;
76593;SDS011;65482;50.240;14.302;2024-02-26T05:00:55;41.58;;;19.80;;
76593;SDS011;65482;50.240;14.302;2024-02-26T05:03:21;45.58;;;22.25;;
76593;SDS011;65482;50.240;14.302;2024-02-26T05:05:47;46.78;;;21.40;;
76593;SDS011;65482;50.240;14.302;2024-02-26T05:08:12;46.78;;;21.02;;
76593;SDS011;65482;50.240;14.302;2024-02-26T05:10:38;44.20;;;21.10;;
76593;SDS011;65482;50.240;14.302;2024-02-26T05:13:06;58.47;;;23.60;;
76593;SDS011;65482;50.240;14.302;2024-02-26T05:15:32;55.83;;;22.65;;
76593;SDS011;65482;50.240;14.302;2024-02-26T05:17:58;56.05;;;23.20;;
76593;SDS011;65482;50.240;14.302;2024-02-26T05:20:24;58.35;;;23.27;;
76593;SDS011;65482;50.240;14.302;2024-02-26T05:22:50;54.45;;;21.98;;
76593;SDS011;65482;50.240;14.302;2024-02-26T05:25:15;58.25;;;22.77;;
76593;SDS011;65482;50.240;14.302;2024-02-26T05:27:45;54.63;;;21.42;;
76593;SDS011;65482;50.240;14.302;2024-02-26T05:30:10;58.80;;;21.85;;
76593;SDS011;65482;50.240;14.302;2024-02-26T05:32:37;56.25;;;22.67;;
76593;SDS011;65482;50.240;14.302;2024-02-26T05:35:03;53.97;;;21.77;;
76593;SDS011;65482;50.240;14.302;2024-02-26T05:37:29;48.50;;;20.95;;
76593;SDS011;65482;50.240;14.302;2024-02-26T05:39:55;52.83;;;21.98;;
76593;SDS011;65482;50.240;14.302;2024-02-26T05:42:21;68.03;;;22.23;;
76593;SDS011;65482;50.240;14.302;2024-02-26T05:44:46;52.55;;;21.75;;
76593;SDS011;65482;50.240;14.302;2024-02-26T05:47:12;56.75;;;21.10;;
76593;SDS011;65482;50.240;14.302;2024-02-26T05:49:38;47.10;;;19.80;;
76593;SDS011;65482;50.240;14.302;2024-02-26T05:52:05;50.13;;;19.60;;
76593;SDS011;65482;50.240;14.302;2024-02-26T05:54:30;46.78;;;20.17;;
76593;SDS011;65482;50.240;14.302;2024-02-26T05:56:57;42.83;;;18.55;;
76593;SDS011;65482;50.240;14.302;2024-02-26T05:59:23;46.42;;;19.08;;
76593;SDS011;65482;50.240;14.302;2024-02-26T06:01:49;49.92;;;20.42;;
76593;SDS011;65482;50.240;14.302;2024-02-26T06:04:14;45.28;;;19.83;;
76593;SDS011;65482;50.240;14.302;2024-02-26T06:06:44;50.92;;;21.40;;
76593;SDS011;65482;50.240;14.302;2024-02-26T06:09:10;49.92;;;21.88;;
76593;SDS011;65482;50.240;14.302;2024-02-26T06:11:36;47.97;;;20.77;;
76593;SDS011;65482;50.240;14.302;2024-02-26T06:14:03;46.80;;;20.10;;
76593;SDS011;65482;50.240;14.302;2024-02-26T06:16:29;48.17;;;20.10;;
76593;SDS011;65482;50.240;14.302;2024-02-26T06:18:55;69.57;;;29.48;;
76593;SDS011;65482;50.240;14.302;2024-02-26T06:21:22;71.82;;;28.27;;
76593;SDS011;65482;50.240;14.302;2024-02-26T06:23:47;58.75;;;23.98;;
76593;SDS011;65482;50.240;14.302;2024-02-26T06:26:13;75.78;;;30.10;;
76593;SDS011;65482;50.240;14.302;2024-02-26T06:28:38;63.30;;;26.95;;
76593;SDS011;65482;50.240;14.302;2024-02-26T06:31:06;62.83;;;25.15;;
76593;SDS011;65482;50.240;14.302;2024-02-26T06:33:31;57.90;;;24.85;;
76593;SDS011;65482;50.240;14.302;2024-02-26T06:35:57;69.43;;;28.08;;
76593;SDS011;65482;50.240;14.302;2024-02-26T06:38:23;60.60;;;26.98;;
76593;SDS011;65482;50.240;14.302;2024-02-26T06:40:49;49.67;;;21.95;;
76593;SDS011;65482;50.240;14.302;2024-02-26T06:43:14;51.30;;;21.05;;
76593;SDS011;65482;50.240;14.302;2024-02-26T06:45:40;48.40;;;20.55;;
76593;SDS011;65482;50.240;14.302;2024-02-26T06:48:06;49.25;;;20.27;;
76593;SDS011;65482;50.240;14.302;2024-02-26T06:50:32;49.08;;;20.90;;
76593;SDS011;65482;50.240;14.302;2024-02-26T06:52:57;48.28;;;20.73;;
76593;SDS011;65482;50.240;14.302;2024-02-26T06:55:23;52.53;;;21.73;;
76593;SDS011;65482;50.240;14.302;2024-02-26T06:57:49;50.63;;;20.73;;
76593;SDS011;65482;50.240;14.302;2024-02-26T07:00:14;51.45;;;21.92;;
76593;SDS011;65482;50.240;14.302;2024-02-26T07:02:42;45.72;;;20.38;;
76593;SDS011;65482;50.240;14.302;2024-02-26T07:05:08;47.90;;;20.60;;
76593;SDS011;65482;50.240;14.302;2024-02-26T07:07:34;48.08;;;21.15;;
76593;SDS011;65482;50.240;14.302;2024-02-26T07:10:00;47.13;;;21.30;;
76593;SDS011;65482;50.240;14.302;2024-02-26T07:12:29;47.50;;;20.30;;
76593;SDS011;65482;50.240;14.302;2024-02-26T07:14:55;53.42;;;20.95;;
76593;SDS011;65482;50.240;14.302;2024-02-26T07:17:20;47.85;;;20.98;;
76593;SDS011;65482;50.240;14.302;2024-02-26T07:19:46;45.28;;;20.38;;
76593;SDS011;65482;50.240;14.302;2024-02-26T07:22:11;46.47;;;19.95;;
76593;SDS011;65482;50.240;14.302;2024-02-26T07:24:37;48.90;;;20.38;;
76593;SDS011;65482;50.240;14.302;2024-02-26T07:27:03;44.25;;;19.95;;
76593;SDS011;65482;50.240;14.302;2024-02-26T07:29:29;38.70;;;18.67;;
76593;SDS011;65482;50.240;14.302;2024-02-26T07:31:54;47.20;;;19.98;;
76593;SDS011;65482;50.240;14.302;2024-02-26T07:34:20;45.33;;;19.23;;
76593;SDS011;65482;50.240;14.302;2024-02-26T07:36:46;39.80;;;18.35;;
76593;SDS011;65482;50.240;14.302;2024-02-26T07:39:12;38.72;;;19.27;;
76593;SDS011;65482;50.240;14.302;2024-02-26T07:41:37;38.80;;;18.95;;
76593;SDS011;65482;50.240;14.302;2024-02-26T07:44:04;39.70;;;18.30;;
76593;SDS011;65482;50.240;14.302;2024-02-26T07:46:30;40.35;;;18.38;;
76593;SDS011;65482;50.240;14.302;2024-02-26T07:48:56;40.35;;;18.92;;
76593;SDS011;65482;50.240;14.302;2024-02-26T07:51:21;45.22;;;20.40;;
76593;SDS011;65482;50.240;14.302;2024-02-26T07:53:47;41.83;;;20.27;;
76593;SDS011;65482;50.240;14.302;2024-02-26T07:56:13;38.72;;;18.40;;
76593;SDS011;65482;50.240;14.302;2024-02-26T07:58:39;44.25;;;19.48;;
76593;SDS011;65482;50.240;14.302;2024-02-26T08:01:04;33.10;;;16.38;;
76593;SDS011;65482;50.240;14.302;2024-02-26T08:03:30;35.97;;;18.30;;
76593;SDS011;65482;50.240;14.302;2024-02-26T08:05:55;32.63;;;16.38;;
76593;SDS011;65482;50.240;14.302;2024-02-26T08:08:21;29.95;;;13.90;;
76593;SDS011;65482;50.240;14.302;2024-02-26T08:10:47;31.30;;;14.35;;
76593;SDS011;65482;50.240;14.302;2024-02-26T08:13:12;35.80;;;14.90;;
76593;SDS011;65482;50.240;14.302;2024-02-26T08:15:38;38.13;;;19.13;;
76593;SDS011;65482;50.240;14.302;2024-02-26T08:18:04;33.97;;;15.75;;
76593;SDS011;65482;50.240;14.302;2024-02-26T08:20:30;27.25;;;12.90;;
76593;SDS011;65482;50.240;14.302;2024-02-26T08:22:56;27.83;;;13.13;;
76593;SDS011;65482;50.240;14.302;2024-02-26T08:25:23;26.15;;;13.52;;
76593;SDS011;65482;50.240;14.302;2024-02-26T08:27:50;27.08;;;12.73;;
76593;SDS011;65482;50.240;14.302;2024-02-26T08:30:16;26.08;;;13.40;;
76593;SDS011;65482;50.240;14.302;2024-02-26T08:32:43;28.77;;;13.88;;
76593;SDS011;65482;50.240;14.302;2024-02-26T08:35:12;35.95;;;15.13;;
76593;SDS011;65482;50.240;14.302;2024-02-26T08:37:38;37.40;;;14.75;;
76593;SDS011;65482;50.240;14.302;2024-02-26T08:40:05;30.92;;;14.98;;
76593;SDS011;65482;50.240;14.302;2024-02-26T08:42:31;36.45;;;15.68;;
76593;SDS011;65482;50.240;14.302;2024-02-26T08:44:57;32.80;;;13.80;;
76593;SDS011;65482;50.240;14.302;2024-02-26T08:47:25;25.35;;;13.10;;
76593;SDS011;65482;50.240;14.302;2024-02-26T08:49:51;26.70;;;13.00;;
76593;SDS011;65482;50.240;14.302;2024-02-26T08:52:16;24.95;;;12.55;;
76593;SDS011;65482;50.240;14.302;2024-02-26T08:54:42;25.85;;;12.45;;
76593;SDS011;65482;50.240;14.302;2024-02-26T08:57:08;24.20;;;12.57;;
76593;SDS011;65482;50.240;14.302;2024-02-26T08:59:33;24.23;;;12.40;;
76593;SDS011;65482;50.240;14.302;2024-02-26T09:01:59;22.83;;;11.65;;
76593;SDS011;65482;50.240;14.302;2024-02-26T09:04:24;22.75;;;11.75;;
76593;SDS011;65482;50.240;14.302;2024-02-26T09:06:52;25.00;;;11.68;;
76593;SDS011;65482;50.240;14.302;2024-02-26T09:09:17;21.65;;;11.90;;
76593;SDS011;65482;50.240;14.302;2024-02-26T09:11:43;25.00;;;12.60;;
76593;SDS011;65482;50.240;14.302;2024-02-26T09:14:09;25.85;;;13.10;;
76593;SDS011;65482;50.240;14.302;2024-02-26T09:16:35;26.42;;;12.77;;
76593;SDS011;65482;50.240;14.302;2024-02-26T09:19:00;25.83;;;12.95;;
76593;SDS011;65482;50.240;14.302;2024-02-26T09:21:28;26.75;;;13.10;;
76593;SDS011;65482;50.240;14.302;2024-02-26T09:23:53;25.90;;;13.35;;
76593;SDS011;65482;50.240;14.302;2024-02-26T09:26:19;22.52;;;12.30;;
76593;SDS011;65482;50.240;14.302;2024-02-26T09:28:45;29.02;;;14.52;;
76593;SDS011;65482;50.240;14.302;2024-02-26T09:31:11;28.52;;;14.27;;
76593;SDS011;65482;50.240;14.302;2024-02-26T09:33:36;25.45;;;13.77;;
76593;SDS011;65482;50.240;14.302;2024-02-26T09:36:03;26.40;;;12.98;;
76593;SDS011;65482;50.240;14.302;2024-02-26T09:38:29;26.27;;;13.05;;
76593;SDS011;65482;50.240;14.302;2024-02-26T09:40:56;23.13;;;12.82;;
76593;SDS011;65482;50.240;14.302;2024-02-26T09:43:23;23.50;;;12.68;;
76593;SDS011;65482;50.240;14.302;2024-02-26T09:45:53;24.13;;;11.50;;
76593;SDS011;65482;50.240;14.302;2024-02-26T09:48:18;23.08;;;11.30;;
76593;SDS011;65482;50.240;14.302;2024-02-26T09:50:45;22.05;;;11.55;;
76593;SDS011;65482;50.240;14.302;2024-02-26T09:53:12;24.13;;;12.35;;
76593;SDS011;65482;50.240;14.302;2024-02-26T09:55:40;23.65;;;11.93;;
76593;SDS011;65482;50.240;14.302;2024-02-26T09:58:06;23.70;;;12.35;;
76593;SDS011;65482;50.240;14.302;2024-02-26T10:00:32;23.05;;;11.75;;
76593;SDS011;65482;50.240;14.302;2024-02-26T10:03:03;23.17;;;11.65;;
76593;SDS011;65482;50.240;14.302;2024-02-26T10:05:32;22.13;;;11.27;;
76593;SDS011;65482;50.240;14.302;2024-02-26T10:08:00;23.52;;;11.70;;
76593;SDS011;65482;50.240;14.302;2024-02-26T10:10:28;21.00;;;10.77;;
76593;SDS011;65482;50.240;14.302;2024-02-26T10:12:54;21.08;;;12.65;;
76593;SDS011;65482;50.240;14.302;2024-02-26T10:15:20;20.90;;;11.88;;
76593;SDS011;65482;50.240;14.302;2024-02-26T10:17:45;19.80;;;11.55;;
76593;SDS011;65482;50.240;14.302;2024-02-26T10:20:15;24.50;;;13.02;;
76593;SDS011;65482;50.240;14.302;2024-02-26T10:22:45;24.65;;;12.55;;
76593;SDS011;65482;50.240;14.302;2024-02-26T10:25:10;22.80;;;11.75;;
76593;SDS011;65482;50.240;14.302;2024-02-26T10:27:36;22.92;;;11.93;;
76593;SDS011;65482;50.240;14.302;2024-02-26T10:30:13;22.20;;;12.38;;
76593;SDS011;65482;50.240;14.302;2024-02-26T10:32:43;21.35;;;12.82;;
76593;SDS011;65482;50.240;14.302;2024-02-26T10:35:09;25.33;;;12.65;;
76593;SDS011;65482;50.240;14.302;2024-02-26T10:37:35;26.23;;;13.98;;
76593;SDS011;65482;50.240;14.302;2024-02-26T10:40:01;30.50;;;13.48;;
76593;SDS011;65482;50.240;14.302;2024-02-26T10:42:27;29.98;;;13.57;;
76593;SDS011;65482;50.240;14.302;2024-02-26T10:44:52;26.27;;;13.75;;
76593;SDS011;65482;50.240;14.302;2024-02-26T10:47:18;25.40;;;13.57;;
76593;SDS011;65482;50.240;14.302;2024-02-26T10:49:45;26.63;;;14.00;;
76593;SDS011;65482;50.240;14.302;2024-02-26T10:52:13;30.50;;;15.20;;
76593;SDS011;65482;50.240;14.302;2024-02-26T10:54:40;28.83;;;15.13;;
76593;SDS011;65482;50.240;14.302;2024-02-26T10:57:10;27.77;;;13.65;;
76593;SDS011;65482;50.240;14.302;2024-02-26T10:59:36;26.70;;;14.13;;
76593;SDS011;65482;50.240;14.302;2024-02-26T11:02:04;26.27;;;14.05;;
76593;SDS011;65482;50.240;14.302;2024-02-26T11:04:32;26.98;;;14.25;;
76593;SDS011;65482;50.240;14.302;2024-02-26T11:07:17;27.77;;;14.00;;
76593;SDS011;65482;50.240;14.302;2024-02-26T11:09:44;27.00;;;15.50;;
76593;SDS011;65482;50.240;14.302;2024-02-26T11:12:17;30.05;;;15.55;;
76593;SDS011;65482;50.240;14.302;2024-02-26T11:14:44;27.02;;;14.85;;
76593;SDS011;65482;50.240;14.302;2024-02-26T11:17:11;29.30;;;14.52;;
76593;SDS011;65482;50.240;14.302;2024-02-26T11:19:39;26.10;;;14.07;;
76593;SDS011;65482;50.240;14.302;2024-02-26T11:22:08;24.38;;;13.95;;
76593;SDS011;65482;50.240;14.302;2024-02-26T11:24:33;28.48;;;14.65;;
76593;SDS011;65482;50.240;14.302;2024-02-26T11:27:01;31.33;;;14.85;;
76593;SDS011;65482;50.240;14.302;2024-02-26T11:29:33;25.67;;;13.68;;
76593;SDS011;65482;50.240;14.302;2024-02-26T11:34:29;27.35;;;14.50;;
76593;SDS011;65482;50.240;14.302;2024-02-26T11:36:55;25.17;;;14.15;;
76593;SDS011;65482;50.240;14.302;2024-02-26T11:39:21;29.80;;;14.65;;
76593;SDS011;65482;50.240;14.302;2024-02-26T11:41:48;26.75;;;14.05;;
76593;SDS011;65482;50.240;14.302;2024-02-26T11:44:15;26.45;;;14.75;;
76593;SDS011;65482;50.240;14.302;2024-02-26T11:46:54;28.67;;;14.02;;
76593;SDS011;65482;50.240;14.302;2024-02-26T11:51:54;27.48;;;15.05;;
76593;SDS011;65482;50.240;14.302;2024-02-26T12:02:38;24.90;;;14.60;;
76593;SDS011;65482;50.240;14.302;2024-02-26T12:05:17;29.45;;;14.55;;
76593;SDS011;65482;50.240;14.302;2024-02-26T12:13:12;28.52;;;13.57;;
76593;SDS011;65482;50.240;14.302;2024-02-26T12:15:42;24.88;;;14.02;;
76593;SDS011;65482;50.240;14.302;2024-02-26T12:18:10;26.10;;;14.70;;
76593;SDS011;65482;50.240;14.302;2024-02-26T12:20:40;24.55;;;13.23;;
76593;SDS011;65482;50.240;14.302;2024-02-26T12:23:06;26.00;;;14.20;;
76593;SDS011;65482;50.240;14.302;2024-02-26T12:25:32;24.45;;;13.95;;
76593;SDS011;65482;50.240;14.302;2024-02-26T12:27:58;26.40;;;14.85;;
76593;SDS011;65482;50.240;14.302;2024-02-26T12:30:26;25.85;;;14.30;;
76593;SDS011;65482;50.240;14.302;2024-02-26T12:32:54;24.17;;;14.05;;
76593;SDS011;65482;50.240;14.302;2024-02-26T12:35:23;24.73;;;14.80;;
76593;SDS011;65482;50.240;14.302;2024-02-26T12:37:49;27.98;;;14.68;;
76593;SDS011;65482;50.240;14.302;2024-02-26T12:40:16;29.85;;;14.80;;
76593;SDS011;65482;50.240;14.302;2024-02-26T12:42:42;25.80;;;13.90;;
76593;SDS011;65482;50.240;14.302;2024-02-26T12:45:10;23.70;;;14.05;;
76593;SDS011;65482;50.240;14.302;2024-02-26T12:47:40;27.25;;;14.77;;
76593;SDS011;65482;50.240;14.302;2024-02-26T12:50:08;26.70;;;14.10;;
76593;SDS011;65482;50.240;14.302;2024-02-26T12:52:36;26.70;;;13.75;;
76593;SDS011;65482;50.240;14.302;2024-02-26T12:55:05;26.45;;;13.38;;
76593;SDS011;65482;50.240;14.302;2024-02-26T12:57:38;25.15;;;13.38;;
76593;SDS011;65482;50.240;14.302;2024-02-26T13:00:04;26.17;;;14.20;;
76593;SDS011;65482;50.240;14.302;2024-02-26T13:02:36;25.08;;;13.95;;
76593;SDS011;65482;50.240;14.302;2024-02-26T13:05:03;25.17;;;13.55;;
76593;SDS011;65482;50.240;14.302;2024-02-26T13:07:31;22.02;;;12.82;;
76593;SDS011;65482;50.240;14.302;2024-02-26T13:09:56;21.52;;;12.82;;
76593;SDS011;65482;50.240;14.302;2024-02-26T13:12:22;25.00;;;13.40;;
76593;SDS011;65482;50.240;14.302;2024-02-26T13:14:58;25.25;;;14.25;;
76593;SDS011;65482;50.240;14.302;2024-02-26T13:17:24;23.40;;;13.93;;
76593;SDS011;65482;50.240;14.302;2024-02-26T13:19:53;24.20;;;12.95;;
76593;SDS011;65482;50.240;14.302;2024-02-26T13:22:22;24.63;;;12.93;;
76593;SDS011;65482;50.240;14.302;2024-02-26T13:24:59;27.75;;;13.40;;
76593;SDS011;65482;50.240;14.302;2024-02-26T13:27:25;25.15;;;13.00;;
76593;SDS011;65482;50.240;14.302;2024-02-26T13:30:09;26.65;;;12.93;;
76593;SDS011;65482;50.240;14.302;2024-02-26T13:32:36;25.88;;;13.35;;
76593;SDS011;65482;50.240;14.302;2024-02-26T13:35:04;25.88;;;13.73;;
76593;SDS011;65482;50.240;14.302;2024-02-26T13:37:31;21.23;;;12.70;;
76593;SDS011;65482;50.240;14.302;2024-02-26T13:40:13;22.17;;;13.43;;
76593;SDS011;65482;50.240;14.302;2024-02-26T13:42:54;21.65;;;12.38;;
76593;SDS011;65482;50.240;14.302;2024-02-26T13:45:35;31.35;;;13.02;;
76593;SDS011;65482;50.240;14.302;2024-02-26T13:48:03;24.23;;;12.65;;
76593;SDS011;65482;50.240;14.302;2024-02-26T13:50:35;21.58;;;12.57;;
76593;SDS011;65482;50.240;14.302;2024-02-26T13:53:08;22.05;;;13.25;;
76593;SDS011;65482;50.240;14.302;2024-02-26T13:55:34;23.50;;;13.27;;
76593;SDS011;65482;50.240;14.302;2024-02-26T13:58:00;22.70;;;12.93;;
76593;SDS011;65482;50.240;14.302;2024-02-26T14:00:29;24.33;;;12.65;;
76593;SDS011;65482;50.240;14.302;2024-02-26T14:02:59;33.10;;;14.10;;
76593;SDS011;65482;50.240;14.302;2024-02-26T14:05:25;22.58;;;12.32;;
76593;SDS011;65482;50.240;14.302;2024-02-26T14:07:52;21.30;;;12.90;;
76593;SDS011;65482;50.240;14.302;2024-02-26T14:10:18;23.13;;;13.05;;
76593;SDS011;65482;50.240;14.302;2024-02-26T14:12:43;22.52;;;13.23;;
76593;SDS011;65482;50.240;14.302;2024-02-26T14:15:09;25.65;;;13.55;;
76593;SDS011;65482;50.240;14.302;2024-02-26T14:17:36;24.20;;;14.18;;
76593;SDS011;65482;50.240;14.302;2024-02-26T14:20:02;26.80;;;12.82;;
76593;SDS011;65482;50.240;14.302;2024-02-26T14:22:28;27.17;;;13.82;;
76593;SDS011;65482;50.240;14.302;2024-02-26T14:24:56;23.45;;;13.35;;